Terminal Aerodrome Forecast
Issued by NWS

Home | Current Version | Previous Version | Text Only | Print | Product List | Glossary On
Versions: 1 2 3 4 5 6 7 8 9 10 11 12 13 14
000
FTUS45 KRIW 281100
TAFBPI
TAF
KBPI 281123Z 2812/2912 VRB03KT P6SM VCFG FEW007
     FM281400 29006KT P6SM SKC
     FM281900 31014G22KT P6SM FEW090
     FM290200 32008KT P6SM SCT200
     FM290600 VRB04KT P6SM SKC=

USA.gov is the U.S. government's official web portal to all federal, state and local government web resources and services.